createdAt,value
2018-10-21T00:00:35.535Z,6.22
2018-10-21T00:01:35.626Z,6.19
2018-10-21T00:02:35.710Z,6.26
2018-10-21T00:03:35.804Z,6.14
2018-10-21T00:04:35.920Z,6.22
2018-10-21T00:05:36.009Z,6.29
2018-10-21T00:06:36.097Z,6.26
2018-10-21T00:07:36.188Z,6.13
2018-10-21T00:08:36.274Z,6.22
2018-10-21T00:09:36.364Z,6.11
2018-10-21T00:10:36.453Z,6.14
2018-10-21T00:11:36.540Z,6.09
2018-10-21T00:12:36.630Z,6.09
2018-10-21T00:13:36.724Z,6.07
2018-10-21T00:14:36.815Z,6.03
2018-10-21T00:15:37.004Z,5.98
2018-10-21T00:16:36.993Z,6.06
2018-10-21T00:17:37.092Z,6.00
2018-10-21T00:18:37.159Z,6.00
2018-10-21T00:19:37.253Z,5.93
2018-10-21T00:20:37.342Z,6.00
2018-10-21T00:21:37.426Z,5.93
2018-10-21T00:22:37.519Z,5.98
2018-10-21T00:23:37.603Z,6.04
2018-10-21T00:24:37.694Z,5.88
2018-10-21T00:25:37.783Z,5.95
2018-10-21T00:26:37.873Z,5.88
2018-10-21T00:27:37.974Z,5.91
2018-10-21T00:28:38.053Z,5.93
2018-10-21T00:29:38.141Z,5.91
2018-10-21T00:30:38.229Z,5.92
2018-10-21T00:31:38.319Z,5.93
2018-10-21T00:32:38.407Z,5.95
2018-10-21T00:33:38.492Z,5.93
2018-10-21T00:34:38.584Z,5.89
2018-10-21T00:35:38.675Z,5.73
2018-10-21T00:36:38.767Z,5.91
2018-10-21T00:37:38.855Z,5.88
2018-10-21T00:38:38.947Z,5.78
2018-10-21T00:39:39.031Z,5.74
2018-10-21T00:40:39.120Z,5.83
2018-10-21T00:41:39.212Z,5.82
2018-10-21T00:42:39.302Z,5.82
2018-10-21T00:43:39.396Z,5.82
2018-10-21T00:44:39.481Z,5.82
2018-10-21T00:45:39.572Z,5.71
2018-10-21T00:46:39.653Z,5.68
2018-10-21T00:47:39.752Z,5.66
2018-10-21T00:48:39.848Z,5.73
2018-10-21T00:49:39.920Z,5.67
2018-10-21T00:50:40.012Z,5.52
2018-10-21T00:51:40.100Z,5.63
2018-10-21T00:52:40.189Z,5.59
2018-10-21T00:53:40.283Z,5.67
2018-10-21T00:54:40.362Z,5.73
2018-10-21T00:55:40.454Z,5.71
2018-10-21T00:56:40.542Z,5.66
2018-10-21T00:57:40.635Z,5.63
2018-10-21T00:58:40.724Z,5.66
2018-10-21T00:59:40.813Z,5.59
2018-10-21T01:00:40.922Z,5.59
2018-10-21T01:01:41.011Z,5.57
2018-10-21T01:02:41.097Z,5.63
2018-10-21T01:03:41.188Z,5.66
2018-10-21T01:04:41.324Z,5.57
2018-10-21T01:05:41.367Z,5.50
2018-10-21T01:06:41.459Z,5.49
2018-10-21T01:07:41.549Z,5.55
2018-10-21T01:08:41.699Z,5.56
2018-10-21T01:09:41.727Z,5.57
2018-10-21T01:10:41.822Z,5.56
2018-10-21T01:11:41.907Z,5.63
2018-10-21T01:12:42.000Z,5.55
2018-10-21T01:13:42.085Z,5.50
2018-10-21T01:14:42.179Z,5.49
2018-10-21T01:15:42.266Z,5.57
2018-10-21T01:16:42.353Z,5.56
2018-10-21T01:17:42.445Z,5.56
2018-10-21T01:18:42.539Z,5.57
2018-10-21T01:19:42.625Z,5.49
2018-10-21T01:20:42.714Z,5.52
2018-10-21T01:21:42.807Z,5.60
2018-10-21T01:22:42.895Z,5.49
2018-10-21T01:23:42.987Z,5.53
2018-10-21T01:24:43.072Z,5.52
2018-10-21T01:25:43.165Z,5.56
2018-10-21T01:26:43.258Z,5.55
2018-10-21T01:27:43.347Z,5.52
2018-10-21T01:28:43.430Z,5.48
2018-10-21T01:29:43.517Z,5.56
2018-10-21T01:30:43.608Z,5.52
2018-10-21T01:31:43.698Z,5.48
2018-10-21T01:32:43.786Z,5.41
2018-10-21T01:33:43.874Z,5.43
2018-10-21T01:34:43.965Z,5.43
2018-10-21T01:35:44.057Z,5.48
2018-10-21T01:36:44.178Z,5.49
2018-10-21T01:37:44.282Z,5.50
2018-10-21T01:38:44.329Z,5.43
2018-10-21T01:39:44.427Z,5.49
2018-10-21T01:40:44.513Z,5.50
2018-10-21T01:41:44.601Z,5.49
2018-10-21T01:42:52.864Z,5.49
2018-10-21T01:43:44.828Z,5.46
2018-10-21T01:44:44.914Z,5.48
2018-10-21T01:45:45.007Z,5.40
2018-10-21T01:46:45.095Z,5.40
2018-10-21T01:47:45.186Z,5.41
2018-10-21T01:48:45.271Z,5.43
2018-10-21T01:49:45.363Z,5.43
2018-10-21T01:50:45.457Z,5.31
2018-10-21T01:51:45.540Z,5.38
2018-10-21T01:52:45.629Z,5.32
2018-10-21T01:53:45.720Z,5.30
2018-10-21T01:54:45.814Z,5.34
2018-10-21T01:55:45.901Z,5.43
2018-10-21T01:56:45.990Z,5.49
2018-10-21T01:57:46.079Z,5.41
2018-10-21T01:58:46.165Z,5.53
2018-10-21T01:59:46.265Z,5.55
2018-10-21T02:00:46.351Z,5.50
2018-10-21T02:01:46.442Z,5.50
2018-10-21T02:02:46.530Z,5.34
2018-10-21T02:03:46.625Z,5.35
2018-10-21T02:04:46.718Z,5.34
2018-10-21T02:05:46.807Z,5.34
2018-10-21T02:06:46.894Z,5.40
2018-10-21T02:07:46.981Z,5.41
2018-10-21T02:08:47.069Z,5.49
2018-10-21T02:09:47.161Z,5.50
2018-10-21T02:10:47.250Z,5.56
2018-10-21T02:11:47.350Z,5.49
2018-10-21T02:12:47.437Z,5.46
2018-10-21T02:13:47.527Z,5.55
2018-10-21T02:14:47.618Z,5.41
2018-10-21T02:15:47.708Z,5.56
2018-10-21T02:16:47.798Z,5.48
2018-10-21T02:17:47.883Z,5.50
2018-10-21T02:18:47.968Z,5.46
2018-10-21T02:19:48.061Z,5.50
2018-10-21T02:20:48.141Z,5.45
2018-10-21T02:21:48.226Z,5.53
2018-10-21T02:22:48.316Z,5.52
2018-10-21T02:23:48.393Z,5.55
2018-10-21T02:24:48.483Z,5.52
2018-10-21T02:25:48.572Z,5.45
2018-10-21T02:26:48.673Z,5.50
2018-10-21T02:27:48.752Z,5.52
2018-10-21T02:28:48.843Z,5.56
2018-10-21T02:29:48.932Z,5.52
2018-10-21T02:30:49.023Z,5.46
2018-10-21T02:31:49.112Z,5.50
2018-10-21T02:32:49.201Z,5.56
2018-10-21T02:33:49.289Z,5.55
2018-10-21T02:34:49.381Z,5.59
2018-10-21T02:35:49.468Z,5.67
2018-10-21T02:36:49.556Z,5.70
2018-10-21T02:37:49.649Z,5.71
2018-10-21T02:38:49.732Z,5.75
2018-10-21T02:39:49.826Z,5.81
2018-10-21T02:40:49.917Z,5.73
2018-10-21T02:41:50.005Z,5.70
2018-10-21T02:42:50.092Z,5.82
2018-10-21T02:43:50.181Z,5.75
2018-10-21T02:44:50.297Z,5.82
2018-10-21T02:45:50.383Z,5.75
2018-10-21T02:46:50.482Z,5.81
2018-10-21T02:47:50.562Z,5.78
2018-10-21T02:48:50.644Z,5.82
2018-10-21T02:49:50.740Z,5.83
2018-10-21T02:50:50.821Z,5.91
2018-10-21T02:51:50.910Z,5.96
2018-10-21T02:52:50.998Z,5.98
2018-10-21T02:53:51.089Z,5.92
2018-10-21T02:54:51.178Z,5.86
2018-10-21T02:55:51.269Z,5.93
2018-10-21T02:56:51.357Z,5.98
2018-10-21T02:57:51.467Z,5.95
2018-10-21T02:58:51.553Z,5.88
2018-10-21T02:59:51.642Z,5.95
2018-10-21T03:00:51.730Z,5.96
2018-10-21T03:01:51.821Z,5.92
2018-10-21T03:02:51.917Z,5.98
2018-10-21T03:03:52.001Z,5.86
2018-10-21T03:04:52.089Z,5.89
2018-10-21T03:05:52.174Z,5.93
2018-10-21T03:06:52.265Z,6.03
2018-10-21T03:07:52.355Z,5.95
2018-10-21T03:08:52.441Z,6.00
2018-10-21T03:09:52.531Z,6.00
2018-10-21T03:10:52.621Z,6.07
2018-10-21T03:11:52.744Z,5.95
2018-10-21T03:12:52.833Z,5.95
2018-10-21T03:13:52.923Z,6.03
2018-10-21T03:14:53.015Z,5.96
2018-10-21T03:15:53.110Z,6.00
2018-10-21T03:16:53.197Z,6.09
2018-10-21T03:17:53.290Z,6.00
2018-10-21T03:18:53.388Z,6.03
2018-10-21T03:19:53.468Z,6.14
2018-10-21T03:20:53.568Z,6.06
2018-10-21T03:21:53.654Z,6.09
2018-10-21T03:22:53.741Z,6.13
2018-10-21T03:23:53.833Z,6.18
2018-10-21T03:24:53.922Z,6.16
2018-10-21T03:25:54.033Z,6.10
2018-10-21T03:26:54.099Z,6.14
2018-10-21T03:27:54.188Z,6.13
2018-10-21T03:28:54.279Z,6.18
2018-10-21T03:29:54.368Z,6.16
2018-10-21T03:30:54.465Z,6.18
2018-10-21T03:31:54.554Z,6.28
2018-10-21T03:32:54.657Z,6.32
2018-10-21T03:33:54.773Z,6.26
2018-10-21T03:34:54.823Z,6.32
2018-10-21T03:35:54.917Z,6.26
2018-10-21T03:36:55.003Z,6.36
2018-10-21T03:37:55.090Z,6.30
2018-10-21T03:39:03.363Z,6.30
2018-10-21T03:39:55.340Z,6.44
2018-10-21T03:40:55.403Z,6.51
2018-10-21T03:41:55.488Z,6.53
2018-10-21T03:42:55.578Z,6.40
2018-10-21T03:43:55.666Z,6.41
2018-10-21T03:44:55.759Z,6.41
2018-10-21T03:45:55.899Z,6.54
2018-10-21T03:46:55.937Z,6.40
2018-10-21T03:47:56.025Z,6.41
2018-10-21T03:48:56.113Z,6.41
2018-10-21T03:49:56.207Z,6.43
2018-10-21T03:50:56.293Z,6.41
2018-10-21T03:51:56.431Z,6.41
2018-10-21T03:52:56.472Z,6.44
2018-10-21T03:53:56.558Z,6.41
2018-10-21T03:54:56.660Z,6.41
2018-10-21T03:55:56.746Z,6.46
2018-10-21T03:56:56.837Z,6.44
2018-10-21T03:57:56.983Z,6.48
2018-10-21T03:58:57.020Z,6.48
2018-10-21T03:59:57.104Z,6.56
2018-10-21T04:00:57.203Z,6.50
2018-10-21T04:01:57.287Z,6.51
2018-10-21T04:02:57.379Z,6.50
2018-10-21T04:03:57.486Z,6.53
2018-10-21T04:04:57.564Z,6.54
2018-10-21T04:05:57.641Z,6.56
2018-10-21T04:06:57.753Z,6.59
2018-10-21T04:07:57.841Z,6.65
2018-10-21T04:08:57.928Z,6.58
2018-10-21T04:09:58.007Z,6.59
2018-10-21T04:10:58.094Z,6.61
2018-10-21T04:11:58.183Z,6.54
2018-10-21T04:12:58.269Z,6.56
2018-10-21T04:13:58.357Z,6.63
2018-10-21T04:14:58.448Z,6.66
2018-10-21T04:15:58.541Z,6.54
2018-10-21T04:16:58.624Z,6.56
2018-10-21T04:17:58.713Z,6.69
2018-10-21T04:18:58.801Z,6.69
2018-10-21T04:19:58.892Z,6.62
2018-10-21T04:20:58.991Z,6.63
2018-10-21T04:21:59.115Z,6.53
2018-10-21T04:22:59.162Z,6.63
2018-10-21T04:23:59.250Z,6.59
2018-10-21T04:24:59.351Z,6.63
2018-10-21T04:25:59.442Z,6.62
2018-10-21T04:26:59.531Z,6.63
2018-10-21T04:27:59.650Z,6.68
2018-10-21T04:28:59.713Z,6.58
2018-10-21T04:29:59.796Z,6.50
2018-10-21T04:30:59.940Z,6.50
2018-10-21T04:31:59.978Z,6.48
2018-10-21T04:33:00.071Z,6.47
2018-10-21T04:34:00.178Z,6.36
2018-10-21T04:35:00.244Z,6.44
2018-10-21T04:36:00.337Z,6.44
2018-10-21T04:37:00.439Z,6.44
2018-10-21T04:38:00.516Z,6.36
2018-10-21T04:39:00.607Z,6.32
2018-10-21T04:40:00.703Z,6.38
2018-10-21T04:41:00.805Z,6.33
2018-10-21T04:42:00.893Z,6.30
2018-10-21T04:43:00.985Z,6.29
2018-10-21T04:44:01.073Z,6.30
2018-10-21T04:45:01.162Z,6.14
2018-10-21T04:46:01.308Z,6.19
2018-10-21T04:47:01.558Z,6.14
2018-10-21T04:48:01.439Z,6.11
2018-10-21T04:49:01.533Z,6.09
2018-10-21T04:50:01.623Z,6.13
2018-10-21T04:51:01.706Z,6.09
2018-10-21T04:52:01.817Z,6.00
2018-10-21T04:53:01.885Z,6.03
2018-10-21T04:54:01.970Z,5.96
2018-10-21T04:55:02.059Z,6.06
2018-10-21T04:56:02.151Z,6.03
2018-10-21T04:57:02.241Z,6.00
2018-10-21T04:58:02.362Z,6.09
2018-10-21T04:59:02.430Z,6.10
2018-10-21T05:00:02.513Z,6.11
2018-10-21T05:01:02.608Z,6.10
2018-10-21T05:02:02.694Z,6.22
2018-10-21T05:03:02.783Z,6.19
2018-10-21T05:04:02.933Z,6.19
2018-10-21T05:05:02.960Z,6.14
2018-10-21T05:06:03.050Z,6.26
2018-10-21T05:07:03.138Z,6.18
2018-10-21T05:08:03.229Z,6.30
2018-10-21T05:09:03.318Z,6.28
2018-10-21T05:10:03.472Z,6.28
2018-10-21T05:11:03.498Z,6.29
2018-10-21T05:12:03.591Z,6.22
2018-10-21T05:13:03.680Z,6.26
2018-10-21T05:14:03.770Z,6.28
2018-10-21T05:15:03.906Z,6.38
2018-10-21T05:16:04.016Z,6.36
2018-10-21T05:17:04.039Z,6.33
2018-10-21T05:18:04.121Z,6.26
2018-10-21T05:19:04.217Z,6.26
2018-10-21T05:20:04.307Z,6.28
2018-10-21T05:21:04.396Z,6.25
2018-10-21T05:22:04.533Z,6.25
2018-10-21T05:23:04.571Z,6.28
2018-10-21T05:24:04.696Z,6.29
2018-10-21T05:25:04.813Z,6.28
2018-10-21T05:26:04.874Z,6.36
2018-10-21T05:27:04.963Z,6.29
2018-10-21T05:28:05.104Z,6.32
2018-10-21T05:29:05.143Z,6.38
2018-10-21T05:30:05.233Z,6.30
2018-10-21T05:31:05.320Z,6.36
2018-10-21T05:32:05.408Z,6.26
2018-10-21T05:33:05.498Z,6.26
2018-10-21T05:34:05.636Z,6.30
2018-10-21T05:35:05.676Z,6.30
2018-10-21T05:36:05.766Z,6.33
2018-10-21T05:37:05.855Z,6.36
2018-10-21T05:38:05.934Z,6.29
2018-10-21T05:39:06.025Z,6.29
2018-10-21T05:40:06.184Z,6.33
2018-10-21T05:41:06.216Z,6.26
2018-10-21T05:42:06.292Z,6.33
2018-10-21T05:43:06.383Z,6.29
2018-10-21T05:44:06.475Z,6.41
2018-10-21T05:45:06.561Z,6.36
2018-10-21T05:46:06.667Z,6.46
2018-10-21T05:47:06.777Z,6.36
2018-10-21T05:48:06.831Z,6.30
2018-10-21T05:49:06.920Z,6.47
2018-10-21T05:50:07.026Z,6.46
2018-10-21T05:51:07.111Z,6.58
2018-10-21T05:52:07.271Z,6.47
2018-10-21T05:53:07.294Z,6.47
2018-10-21T05:54:07.380Z,6.47
2018-10-21T05:55:07.470Z,6.50
2018-10-21T05:56:07.555Z,6.58
2018-10-21T05:57:07.643Z,6.68
2018-10-21T05:58:07.801Z,6.69
2018-10-21T05:59:07.823Z,6.62
2018-10-21T06:00:07.916Z,6.62
2018-10-21T06:01:08.008Z,6.69
2018-10-21T06:02:08.095Z,6.69
2018-10-21T06:03:08.197Z,6.61
2018-10-21T06:04:08.310Z,6.71
2018-10-21T06:05:08.361Z,6.77
2018-10-21T06:06:08.459Z,6.69
2018-10-21T06:07:08.540Z,6.81
2018-10-21T06:08:08.633Z,6.87
2018-10-21T06:09:08.744Z,6.83
2018-10-21T06:10:08.858Z,6.80
2018-10-21T06:11:08.902Z,6.79
2018-10-21T06:12:08.995Z,6.86
2018-10-21T06:13:09.082Z,6.86
2018-10-21T06:14:09.174Z,6.84
2018-10-21T06:15:09.262Z,6.79
2018-10-21T06:16:09.384Z,6.83
2018-10-21T06:17:09.451Z,6.81
2018-10-21T06:18:09.544Z,6.86
2018-10-21T06:19:09.643Z,6.80
2018-10-21T06:20:09.730Z,6.84
2018-10-21T06:21:09.820Z,6.87
2018-10-21T06:22:09.965Z,6.86
2018-10-21T06:23:09.994Z,6.87
2018-10-21T06:24:10.090Z,6.86
2018-10-21T06:25:10.182Z,7.04
2018-10-21T06:26:10.274Z,6.90
2018-10-21T06:27:10.361Z,7.02
2018-10-21T06:28:10.454Z,7.01
2018-10-21T06:29:10.542Z,7.15
2018-10-21T06:30:10.634Z,7.15
2018-10-21T06:31:10.740Z,7.16
2018-10-21T06:32:10.808Z,7.12
2018-10-21T06:33:10.929Z,7.12
2018-10-21T06:34:11.002Z,7.19
2018-10-21T06:35:11.093Z,7.13
2018-10-21T06:36:11.186Z,7.15
2018-10-21T06:37:11.271Z,7.13
2018-10-21T06:38:11.360Z,7.16
2018-10-21T06:39:11.509Z,7.15
2018-10-21T06:40:11.540Z,7.17
2018-10-21T06:41:11.629Z,7.15
2018-10-21T06:42:11.720Z,7.15
2018-10-21T06:43:11.804Z,7.15
2018-10-21T06:44:11.900Z,7.13
2018-10-21T06:45:12.075Z,7.19
2018-10-21T06:46:12.073Z,7.24
2018-10-21T06:47:12.167Z,7.16
2018-10-21T06:48:12.252Z,7.23
2018-10-21T06:49:12.398Z,7.20
2018-10-21T06:50:12.434Z,7.19
2018-10-21T06:51:12.580Z,7.20
2018-10-21T06:52:12.612Z,7.17
2018-10-21T06:53:12.712Z,7.20
2018-10-21T06:54:12.790Z,7.22
2018-10-21T06:55:12.879Z,7.23
2018-10-21T06:56:12.984Z,7.16
2018-10-21T06:57:13.294Z,7.20
2018-10-21T06:58:13.151Z,7.26
2018-10-21T06:59:13.242Z,7.23
2018-10-21T07:00:13.360Z,7.34
2018-10-21T07:01:13.422Z,7.42
2018-10-21T07:02:13.519Z,7.32
2018-10-21T07:03:13.602Z,7.34
2018-10-21T07:04:13.757Z,7.42
2018-10-21T07:05:13.784Z,7.41
2018-10-21T07:06:13.894Z,7.45
2018-10-21T07:07:13.976Z,7.45
2018-10-21T07:08:14.065Z,7.42
2018-10-21T07:09:14.152Z,7.47
2018-10-21T07:10:14.264Z,7.58
2018-10-21T07:11:14.337Z,7.63
2018-10-21T07:12:14.427Z,7.60
2018-10-21T07:13:14.518Z,7.75
2018-10-21T07:14:14.609Z,7.79
2018-10-21T07:15:14.766Z,7.78
2018-10-21T07:16:14.875Z,7.92
2018-10-21T07:17:14.894Z,7.99
2018-10-21T07:18:14.973Z,8.00
2018-10-21T07:19:15.065Z,8.02
2018-10-21T07:20:15.157Z,8.15
2018-10-21T07:21:15.248Z,8.12
2018-10-21T07:22:15.384Z,8.03
2018-10-21T07:23:15.426Z,8.08
2018-10-21T07:24:15.515Z,8.20
2018-10-21T07:25:15.606Z,8.11
2018-10-21T07:26:15.692Z,8.28
2018-10-21T07:27:15.780Z,8.30
2018-10-21T07:28:15.946Z,8.42
2018-10-21T07:29:15.966Z,8.42
2018-10-21T07:30:16.058Z,8.45
2018-10-21T07:31:16.147Z,8.47
2018-10-21T07:32:16.239Z,8.45
2018-10-21T07:33:16.328Z,8.44
2018-10-21T07:34:16.443Z,8.51
2018-10-21T07:35:16.507Z,8.58
2018-10-21T07:36:16.624Z,8.62
2018-10-21T07:37:16.695Z,8.58
2018-10-21T07:38:16.785Z,8.68
2018-10-21T07:39:16.884Z,8.72
2018-10-21T07:40:17.008Z,8.69
2018-10-21T07:41:17.061Z,8.63
2018-10-21T07:42:17.146Z,8.63
2018-10-21T07:43:26.671Z,8.68
2018-10-21T07:44:17.309Z,8.71
2018-10-21T07:45:17.373Z,8.73
2018-10-21T07:46:17.537Z,8.62
2018-10-21T07:47:17.560Z,8.65
2018-10-21T07:48:17.661Z,8.65
2018-10-21T07:49:17.797Z,8.58
2018-10-21T07:50:17.810Z,8.62
2018-10-21T07:51:17.904Z,8.60
2018-10-21T07:52:17.990Z,8.66
2018-10-21T07:53:18.068Z,8.75
2018-10-21T07:54:18.156Z,8.69
2018-10-21T07:55:18.306Z,8.69
2018-10-21T07:56:18.348Z,8.66
2018-10-21T07:57:18.431Z,8.69
2018-10-21T07:58:18.510Z,8.72
2018-10-21T07:59:18.601Z,8.69
2018-10-21T08:00:18.691Z,8.63
2018-10-21T08:01:18.857Z,8.68
2018-10-21T08:02:18.871Z,8.54
2018-10-21T08:03:18.961Z,8.57
2018-10-21T08:04:19.054Z,8.58
2018-10-21T08:05:19.136Z,8.57
2018-10-21T08:06:19.226Z,8.66
2018-10-21T08:07:19.319Z,8.53
2018-10-21T08:08:19.407Z,8.69
2018-10-21T08:09:19.504Z,8.60
2018-10-21T08:10:19.592Z,8.68
2018-10-21T08:11:19.684Z,8.81
2018-10-21T08:12:19.779Z,8.87
2018-10-21T08:13:19.867Z,8.72
2018-10-21T08:14:19.999Z,8.78
2018-10-21T08:15:20.057Z,8.86
2018-10-21T08:16:20.144Z,8.88
2018-10-21T08:17:20.226Z,8.87
2018-10-21T08:18:20.316Z,8.99
2018-10-21T08:19:20.410Z,9.02
2018-10-21T08:20:20.505Z,9.09
2018-10-21T08:21:20.632Z,9.09
2018-10-21T08:22:20.689Z,9.13
2018-10-21T08:23:20.784Z,9.12
2018-10-21T08:24:20.875Z,9.12
2018-10-21T08:25:20.967Z,9.15
2018-10-21T08:26:21.053Z,9.24
2018-10-21T08:27:21.210Z,9.28
2018-10-21T08:28:21.249Z,9.34
2018-10-21T08:29:21.329Z,9.35
2018-10-21T08:30:21.421Z,9.49
2018-10-21T08:31:21.528Z,9.53
2018-10-21T08:32:21.608Z,9.57
2018-10-21T08:33:21.727Z,9.60
2018-10-21T08:34:21.790Z,9.57
2018-10-21T08:35:21.879Z,9.66
2018-10-21T08:36:21.967Z,9.71
2018-10-21T08:37:22.058Z,9.64
2018-10-21T08:38:22.143Z,9.70
2018-10-21T08:39:22.279Z,9.79
2018-10-21T08:40:22.322Z,9.76
2018-10-21T08:41:22.422Z,9.79
2018-10-21T08:42:22.514Z,9.76
2018-10-21T08:43:22.603Z,9.78
2018-10-21T08:44:22.693Z,9.81
2018-10-21T08:45:22.807Z,9.82
2018-10-21T08:46:23.072Z,9.85
2018-10-21T08:47:23.007Z,9.94
2018-10-21T08:48:23.101Z,10.00
2018-10-21T08:49:23.241Z,10.04
2018-10-21T08:50:23.286Z,10.00
2018-10-21T08:51:23.379Z,10.10
2018-10-21T08:52:23.472Z,10.04
2018-10-21T08:53:23.563Z,10.12
2018-10-21T08:54:23.656Z,10.21
2018-10-21T08:55:23.744Z,10.21
2018-10-21T08:56:23.836Z,10.22
2018-10-21T08:57:23.930Z,10.28
2018-10-21T08:58:24.022Z,10.34
2018-10-21T08:59:24.113Z,10.36
2018-10-21T09:00:24.211Z,10.37
2018-10-21T09:01:24.301Z,10.46
2018-10-21T09:02:24.387Z,10.55
2018-10-21T09:03:24.485Z,10.58
2018-10-21T09:04:24.573Z,10.53
2018-10-21T09:05:24.664Z,10.62
2018-10-21T09:06:24.764Z,10.71
2018-10-21T09:07:24.845Z,10.71
2018-10-21T09:08:24.936Z,10.73
2018-10-21T09:09:25.026Z,10.84
2018-10-21T09:10:25.139Z,10.77
2018-10-21T09:11:25.209Z,10.88
2018-10-21T09:12:25.317Z,11.01
2018-10-21T09:13:25.399Z,10.96
2018-10-21T09:14:25.499Z,11.13
2018-10-21T09:15:25.582Z,11.24
2018-10-21T09:16:25.727Z,11.24
2018-10-21T09:17:25.773Z,11.31
2018-10-21T09:18:25.870Z,11.35
2018-10-21T09:19:25.961Z,11.32
2018-10-21T09:20:26.051Z,11.29
2018-10-21T09:21:26.144Z,11.44
2018-10-21T09:22:26.238Z,11.54
2018-10-21T09:23:26.335Z,11.44
2018-10-21T09:24:26.428Z,11.62
2018-10-21T09:25:26.528Z,11.59
2018-10-21T09:26:26.599Z,11.61
2018-10-21T09:27:26.690Z,11.57
2018-10-21T09:28:26.784Z,11.61
2018-10-21T09:29:26.876Z,11.59
2018-10-21T09:30:26.967Z,11.59
2018-10-21T09:31:27.070Z,11.68
2018-10-21T09:32:27.156Z,11.83
2018-10-21T09:33:27.373Z,11.89
2018-10-21T09:34:27.346Z,11.87
2018-10-21T09:35:27.436Z,11.90
2018-10-21T09:36:27.528Z,11.96
2018-10-21T09:37:27.617Z,12.01
2018-10-21T09:38:27.712Z,12.13
2018-10-21T09:39:27.808Z,12.19
2018-10-21T09:40:27.901Z,12.26
2018-10-21T09:41:27.993Z,12.37
2018-10-21T09:42:28.089Z,12.39
2018-10-21T09:43:28.186Z,12.39
2018-10-21T09:44:28.274Z,12.51
2018-10-21T09:45:28.369Z,12.63
2018-10-21T09:46:28.460Z,12.60
2018-10-21T09:47:28.559Z,12.70
2018-10-21T09:48:28.652Z,12.70
2018-10-21T09:49:28.746Z,12.62
2018-10-21T09:50:28.840Z,12.66
2018-10-21T09:51:28.934Z,12.69
2018-10-21T09:52:29.035Z,12.78
2018-10-21T09:53:29.118Z,12.74
2018-10-21T09:54:29.207Z,12.69
2018-10-21T09:55:29.303Z,12.79
2018-10-21T09:56:29.390Z,12.85
2018-10-21T09:57:29.490Z,12.84
2018-10-21T09:58:29.615Z,12.93
2018-10-21T09:59:29.678Z,12.95
2018-10-21T10:00:29.770Z,13.04
2018-10-21T10:01:29.862Z,13.00
2018-10-21T10:02:29.956Z,13.14
2018-10-21T10:03:30.052Z,13.18
2018-10-21T10:04:30.150Z,13.22
2018-10-21T10:05:30.250Z,13.22
2018-10-21T10:06:30.349Z,13.21
2018-10-21T10:07:30.438Z,13.22
2018-10-21T10:08:30.535Z,13.20
2018-10-21T10:09:30.627Z,13.33
2018-10-21T10:10:30.722Z,13.32
2018-10-21T10:11:30.816Z,13.30
2018-10-21T10:12:30.913Z,13.41
2018-10-21T10:13:31.005Z,13.47
2018-10-21T10:14:31.101Z,13.44
2018-10-21T10:15:31.202Z,13.44
2018-10-21T10:16:31.291Z,13.55
2018-10-21T10:17:31.423Z,13.56
2018-10-21T10:18:31.476Z,13.61
2018-10-21T10:19:31.576Z,13.56
2018-10-21T10:20:31.668Z,13.63
2018-10-21T10:21:31.761Z,13.71
2018-10-21T10:22:31.856Z,13.81
2018-10-21T10:23:32.013Z,13.94
2018-10-21T10:24:32.044Z,13.83
2018-10-21T10:25:32.147Z,13.81
2018-10-21T10:26:32.240Z,13.70
2018-10-21T10:27:32.312Z,13.69
2018-10-21T10:28:32.411Z,13.89
2018-10-21T10:29:32.521Z,14.01
2018-10-21T10:30:32.677Z,14.02
2018-10-21T10:31:32.710Z,13.87
2018-10-21T10:32:32.800Z,13.95
2018-10-21T10:33:32.901Z,13.76
2018-10-21T10:34:32.998Z,13.70
2018-10-21T10:35:33.113Z,13.84
2018-10-21T10:36:33.227Z,13.91
2018-10-21T10:37:33.304Z,13.91
2018-10-21T10:38:33.404Z,13.89
2018-10-21T10:39:33.506Z,13.92
2018-10-21T10:40:33.602Z,13.83
2018-10-21T10:41:33.732Z,13.84
2018-10-21T10:42:33.787Z,13.70
2018-10-21T10:43:33.885Z,13.71
2018-10-21T10:44:33.987Z,13.73
2018-10-21T10:45:34.070Z,13.92
2018-10-21T10:46:34.175Z,14.04
2018-10-21T10:47:34.282Z,14.04
2018-10-21T10:48:34.379Z,14.19
2018-10-21T10:49:34.698Z,14.16
2018-10-21T10:50:34.560Z,14.29
2018-10-21T10:51:34.650Z,14.39
2018-10-21T10:52:34.737Z,14.54
2018-10-21T10:53:34.851Z,14.57
2018-10-21T10:54:34.942Z,14.69
2018-10-21T10:55:35.114Z,14.80
2018-10-21T10:56:35.258Z,14.80
2018-10-21T10:57:35.243Z,14.78
2018-10-21T10:58:35.336Z,14.74
2018-10-21T10:59:35.490Z,14.81
2018-10-21T11:00:35.648Z,14.74
2018-10-21T11:01:35.665Z,14.93
2018-10-21T11:02:35.761Z,15.03
2018-10-21T11:03:35.796Z,15.09
2018-10-21T11:04:35.927Z,15.13
2018-10-21T11:05:36.032Z,15.24
2018-10-21T11:06:36.075Z,15.23
2018-10-21T11:07:36.169Z,15.26
2018-10-21T11:08:36.259Z,15.20
2018-10-21T11:09:36.381Z,15.24
2018-10-21T11:10:36.476Z,15.35
2018-10-21T11:11:36.576Z,15.41
2018-10-21T11:12:36.680Z,15.52
2018-10-21T11:13:36.789Z,15.63
2018-10-21T11:14:36.947Z,15.74
2018-10-21T11:15:37.226Z,15.75
2018-10-21T11:16:37.031Z,15.84
2018-10-21T11:17:37.146Z,15.97
2018-10-21T11:18:37.245Z,15.93
2018-10-21T11:19:37.353Z,16.01
2018-10-21T11:20:37.427Z,15.92
2018-10-21T11:21:37.578Z,16.06
2018-10-21T11:22:37.653Z,16.18
2018-10-21T11:23:37.697Z,16.20
2018-10-21T11:24:37.806Z,16.30
2018-10-21T11:25:37.905Z,16.18
2018-10-21T11:26:38.251Z,16.18
2018-10-21T11:27:38.105Z,16.26
2018-10-21T11:28:38.187Z,16.33
2018-10-21T11:29:38.374Z,16.33
2018-10-21T11:30:38.409Z,16.49
2018-10-21T11:31:38.505Z,16.52
2018-10-21T11:32:38.589Z,16.50
2018-10-21T11:33:38.681Z,16.48
2018-10-21T11:34:38.781Z,16.44
2018-10-21T11:35:38.892Z,16.48
2018-10-21T11:36:39.012Z,16.55
2018-10-21T11:37:39.168Z,16.40
2018-10-21T11:38:39.172Z,16.45
2018-10-21T11:39:39.273Z,16.58
2018-10-21T11:40:39.366Z,16.67
2018-10-21T11:41:39.450Z,16.63
2018-10-21T11:42:39.552Z,16.56
2018-10-21T11:43:39.651Z,16.68
2018-10-21T11:44:39.748Z,16.83
2018-10-21T11:45:39.915Z,16.90
2018-10-21T11:46:39.936Z,17.04
2018-10-21T11:47:40.042Z,17.00
2018-10-21T11:48:40.141Z,17.10
2018-10-21T11:49:40.233Z,17.15
2018-10-21T11:50:40.349Z,17.08
2018-10-21T11:51:40.430Z,17.15
2018-10-21T11:52:40.664Z,17.14
2018-10-21T11:53:40.623Z,17.14
2018-10-21T11:54:40.716Z,17.18
2018-10-21T11:55:40.814Z,17.25
2018-10-21T11:56:40.902Z,17.36
2018-10-21T11:57:40.994Z,17.28
2018-10-21T11:58:41.093Z,17.30
2018-10-21T11:59:41.188Z,17.35
2018-10-21T12:00:41.282Z,17.29
2018-10-21T12:01:41.377Z,17.29
2018-10-21T12:02:41.496Z,17.41
2018-10-21T12:03:41.597Z,17.43
2018-10-21T12:04:41.682Z,17.44
2018-10-21T12:05:41.788Z,17.48
2018-10-21T12:06:41.881Z,17.46
2018-10-21T12:07:41.995Z,17.48
2018-10-21T12:08:42.070Z,17.50
2018-10-21T12:09:42.171Z,17.48
2018-10-21T12:10:42.271Z,17.50
2018-10-21T12:11:42.365Z,17.62
2018-10-21T12:12:42.463Z,17.70
2018-10-21T12:13:42.550Z,17.71
2018-10-21T12:14:42.654Z,17.63
2018-10-21T12:15:42.749Z,17.66
2018-10-21T12:16:42.843Z,17.69
2018-10-21T12:17:42.937Z,17.70
2018-10-21T12:18:43.034Z,17.74
2018-10-21T12:19:43.193Z,17.81
2018-10-21T12:20:43.236Z,17.89
2018-10-21T12:21:43.326Z,17.92
2018-10-21T12:22:43.451Z,17.99
2018-10-21T12:23:43.530Z,18.04
2018-10-21T12:24:43.625Z,18.00
2018-10-21T12:25:43.769Z,18.13
2018-10-21T12:26:43.817Z,18.04
2018-10-21T12:27:43.914Z,18.15
2018-10-21T12:28:44.014Z,18.21
2018-10-21T12:29:44.115Z,18.36
2018-10-21T12:30:44.209Z,18.39
2018-10-21T12:31:44.305Z,18.42
2018-10-21T12:32:44.400Z,18.33
2018-10-21T12:33:44.500Z,18.37
2018-10-21T12:34:44.592Z,18.34
2018-10-21T12:35:44.694Z,18.55
2018-10-21T12:36:44.785Z,18.44
2018-10-21T12:37:44.877Z,18.52
2018-10-21T12:38:44.975Z,18.50
2018-10-21T12:39:45.071Z,18.42
2018-10-21T12:40:45.171Z,18.15
2018-10-21T12:41:45.264Z,18.12
2018-10-21T12:42:45.366Z,18.17
2018-10-21T12:43:45.461Z,18.22
2018-10-21T12:44:45.559Z,18.22
2018-10-21T12:45:45.656Z,18.28
2018-10-21T12:46:45.752Z,18.28
2018-10-21T12:47:45.852Z,18.40
2018-10-21T12:50:28.491Z,18.57
2018-10-21T12:51:28.592Z,18.67
2018-10-21T12:52:28.703Z,18.62
2018-10-21T12:53:28.800Z,18.77
2018-10-21T12:54:28.951Z,18.83
2018-10-21T12:55:28.995Z,18.86
2018-10-21T12:56:29.083Z,18.84
2018-10-21T12:57:29.182Z,19.01
2018-10-21T12:58:29.277Z,18.97
2018-10-21T12:59:29.373Z,19.01
2018-10-21T13:00:29.467Z,19.10
2018-10-21T13:01:29.553Z,19.17
2018-10-21T13:02:29.666Z,19.15
2018-10-21T13:03:29.737Z,19.25
2018-10-21T13:04:29.833Z,19.31
2018-10-21T13:05:29.941Z,19.23
2018-10-21T13:06:30.041Z,19.40
2018-10-21T13:07:30.141Z,19.40
2018-10-21T13:08:30.237Z,19.43
2018-10-21T13:09:30.336Z,19.58
2018-10-21T13:10:30.431Z,19.43
2018-10-21T13:11:30.530Z,19.32
2018-10-21T13:12:30.632Z,19.28